Latest Weather Observations for White Cliffs AWS

IDN60801

Issued at 9:32 am EST Saturday 30 April 2016 (issued every 30 minutes, with the page automatically refreshed every 10 minutes)

About weather observations | Map of weather stations | Latest weather observations for NSW | Other Formats
Station Details ID: 046129 Name: WHITE CLIFFS AWS Lat: -30.85 Lon: 143.07 Height: 158.0 m
Data from the previous 72 hours. | See also: Recent months at White Cliffs AWS
Date/Time
EST
Temp
°C
App
Temp
°C
Dew
Point
Rel
Hum
%
Delta-T
°C
Wind Press
QNH
hPa
Press
MSL
hPa
Rain
since 9 am
mm
Dir
 
Spd
km/h
Gust
km/h
Spd
kts
Gust
kts
30/09:30am 19.5 20.6 18.0 91 0.9 ESE 9 13 5 7 1017.6 1017.1 0.0
30/09:00am 19.1 20.8 18.6 97 0.3 ESE 7 13 4 7 1017.6 1017.1 18.4
30/08:30am 17.7 18.9 17.4 98 0.2 ESE 7 11 4 6 1017.7 1017.2 18.4
30/08:00am 17.6 18.4 17.3 98 0.2 NE 9 11 5 6 1017.5 1017.0 18.4
30/07:30am 17.4 18.0 16.9 97 0.3 NE 9 11 5 6 1017.2 1016.7 18.4
30/07:00am 17.1 18.5 16.5 96 0.4 NNE 4 15 2 8 1016.9 1016.4 18.4
30/06:30am 17.1 19.3 16.5 96 0.4 CALM 0 0 0 0 1016.7 1016.2 18.4
30/06:00am 17.1 18.2 16.5 96 0.4 ESE 6 7 3 4 1016.5 1016.0 18.4
30/05:30am 17.5 18.1 16.9 96 0.4 NE 9 13 5 7 1016.1 1015.7 18.2
30/05:00am 17.6 18.7 17.0 96 0.4 NE 7 11 4 6 1015.8 1015.4 18.2
30/04:30am 17.8 17.8 17.2 96 0.4 NE 13 15 7 8 1015.8 1015.4 18.2
30/04:00am 17.5 18.1 16.7 95 0.5 ENE 9 11 5 6 1015.7 1015.3 18.2
30/03:30am 18.0 18.8 17.2 95 0.5 ENE 9 11 5 6 1015.8 1015.4 18.2
30/03:00am 18.1 18.5 17.3 95 0.5 NE 11 15 6 8 1015.9 1015.5 18.2
30/02:30am 18.3 19.1 17.3 94 0.6 NE 9 11 5 6 1016.2 1015.8 18.2
30/02:00am 18.4 18.5 17.4 94 0.6 NE 13 19 7 10 1016.2 1015.8 18.2
30/01:30am 18.3 18.7 17.3 94 0.6 ENE 11 15 6 8 1016.6 1016.1 18.2
30/01:00am 18.3 18.3 17.1 93 0.7 ENE 13 17 7 9 1017.0 1016.5 18.2
30/12:30am 18.3 17.6 17.3 94 0.6 NE 17 20 9 11 1016.7 1016.2 18.2
30/12:00am 18.4 18.1 17.4 94 0.6 N 15 20 8 11 1017.6 1017.1 18.2
 
Date/Time
EST
Temp
°C
App
Temp
°C
Dew
Point
Rel
Hum
%
Delta-T
°C
Wind Press
QNH
hPa
Press
MSL
hPa
Rain
since 9 am
mm
Dir
 
Spd
km/h
Gust
km/h
Spd
kts
Gust
kts
29/11:30pm 18.5 17.4 17.3 93 0.7 NNW 19 20 10 11 1017.8 1017.3 18.0
29/11:00pm 18.6 17.5 17.4 93 0.7 ENE 19 24 10 13 1016.0 1015.6 16.2
29/10:30pm 18.7 17.7 17.5 93 0.7 E 19 22 10 12 1016.1 1015.7 16.2
29/10:00pm 18.8 17.8 17.6 93 0.7 ENE 19 24 10 13 1017.0 1016.5 16.2
29/09:30pm 18.7 18.1 17.5 93 0.7 E 17 22 9 12 1016.7 1016.2 16.2
29/09:00pm 18.7 18.1 17.5 93 0.7 E 17 24 9 13 1016.7 1016.2 16.2
29/08:30pm 18.9 18.3 17.6 92 0.8 E 17 20 9 11 1016.7 1016.2 16.2
29/08:00pm 19.3 19.9 17.6 90 1.0 ESE 11 13 6 7 1016.3 1015.9 16.2
29/07:30pm 19.2 19.4 17.7 91 0.9 NE 13 24 7 13 1016.9 1016.4 16.0
29/07:00pm 18.6 19.2 17.6 94 0.6 E 11 13 6 7 1016.1 1015.7 16.0
29/06:30pm 18.8 20.1 17.6 93 0.7 ESE 7 11 4 6 1016.3 1015.9 16.0
29/06:00pm 19.0 20.8 17.3 90 1.0 S 4 9 2 5 1016.5 1016.0 15.6
29/05:30pm 18.7 19.2 17.5 93 0.7 S 11 15 6 8 1016.1 1015.7 14.6
29/05:00pm 18.7 18.5 17.5 93 0.7 SSE 15 20 8 11 1016.1 1015.7 12.4
29/04:30pm 19.3 18.6 17.4 89 1.2 S 17 22 9 12 1016.0 1015.6 8.4
29/04:00pm 19.6 19.1 17.7 89 1.2 S 17 20 9 11 1015.9 1015.5 6.6
29/03:30pm 19.6 17.3 17.7 89 1.2 SSW 26 33 14 18 1015.4 1015.0 6.0
29/03:00pm 20.0 18.5 18.5 91 0.9 SSW 24 32 13 17 1015.5 1015.1 5.8
29/02:30pm 20.1 19.5 18.9 93 0.8 SSW 20 26 11 14 1015.4 1015.0 5.6
29/02:00pm 19.8 19.1 18.6 93 0.8 SSW 20 24 11 13 1015.6 1015.2 5.0
29/01:30pm 20.2 20.3 18.3 89 1.2 SSW 15 22 8 12 1015.4 1015.0 3.4
29/01:00pm 20.9 20.6 17.3 80 2.2 WNW 15 20 8 11 1015.5 1015.1 1.8
29/12:30pm 22.2 22.1 17.8 76 2.7 NW 15 19 8 10 1015.7 1015.3 0.4
29/12:00pm 22.9 21.7 16.2 66 4.1 N 17 26 9 14 1015.7 1015.3 0.2
29/11:30am 22.7 20.3 16.5 68 3.8 NNW 24 33 13 18 1016.2 1015.8 0.0
29/11:00am 22.4 19.2 16.4 69 3.7 NNW 28 35 15 19 1016.2 1015.8 0.0
29/10:30am 24.3 21.5 13.2 50 6.5 N 20 24 11 13 1016.5 1016.0 0.0
29/10:00am 24.3 21.5 13.2 50 6.5 NNE 20 28 11 15 1016.5 1016.0 0.0
29/09:30am 23.8 22.7 14.2 55 5.7 N 13 17 7 9 1016.3 1015.9 0.0
29/09:00am 22.8 21.4 14.6 60 4.9 NE 15 19 8 10 1016.2 1015.8 0.0
29/08:30am 21.8 19.8 15.6 68 3.7 NNE 20 28 11 15 1016.2 1015.8 0.0
29/08:00am 21.8 19.7 15.2 66 3.9 NNE 20 28 11 15 1016.1 1015.7 0.0
29/07:30am 23.1 20.2 13.0 53 5.9 N 20 32 11 17 1016.6 1016.1 0.0
29/07:00am 24.4 20.2 11.0 43 7.5 NNW 24 32 13 17 1016.6 1016.1 0.0
29/06:30am 24.9 20.6 10.8 41 7.9 NNE 24 33 13 18 1015.1 1014.7 0.0
29/06:00am 24.6 20.3 10.8 42 7.7 NNE 24 33 13 18 1015.0 1014.6 0.0
29/05:30am 24.6 20.2 10.5 41 7.9 NNE 24 32 13 17 1014.8 1014.3 0.0
29/05:00am 24.6 20.2 10.5 41 7.9 NNE 24 32 13 17 1014.7 1014.2 0.0
29/04:30am 24.6 20.2 10.5 41 7.9 NNE 24 32 13 17 1014.5 1014.0 0.0
29/04:00am 24.5 19.7 10.4 41 7.9 NNE 26 33 14 18 1014.8 1014.3 0.0
29/03:30am 24.1 20.5 10.4 42 7.6 NE 20 28 11 15 1014.9 1014.5 0.0
29/03:00am 24.5 20.2 10.8 42 7.7 NE 24 32 13 17 1015.2 1014.8 0.0
29/02:30am 24.6 20.1 10.1 40 8.0 NE 24 30 13 16 1015.4 1015.0 0.0
29/02:00am 24.9 21.5 10.4 40 8.1 NE 19 28 10 15 1015.9 1015.5 0.0
29/01:30am 23.9 20.8 10.2 42 7.6 ENE 17 24 9 13 1015.7 1015.3 0.0
29/01:00am 23.2 20.3 9.6 42 7.4 E 15 19 8 10 1015.9 1015.5 0.0
29/12:30am 23.8 21.0 10.1 42 7.6 E 15 19 8 10 1016.2 1015.8 0.0
29/12:00am 24.6 21.3 9.7 39 8.2 E 17 19 9 10 1016.7 1016.2 0.0
 
Date/Time
EST
Temp
°C
App
Temp
°C
Dew
Point
Rel
Hum
%
Delta-T
°C
Wind Press
QNH
hPa
Press
MSL
hPa
Rain
since 9 am
mm
Dir
 
Spd
km/h
Gust
km/h
Spd
kts
Gust
kts
28/11:30pm 25.9 22.2 9.3 35 9.1 ENE 19 24 10 13 1017.2 1016.7 0.0
28/11:00pm 25.8 22.6 8.3 33 9.5 ENE 15 20 8 11 1017.3 1016.8 0.0
28/10:30pm 25.9 21.7 8.4 33 9.5 ENE 20 26 11 14 1017.2 1016.7 0.0
28/10:00pm 25.9 22.3 8.4 33 9.5 ENE 17 22 9 12 1017.3 1016.8 0.0
28/09:30pm 25.0 21.8 8.5 35 8.9 ENE 15 19 8 10 1017.0 1016.5 0.0
28/09:00pm 24.4 21.6 8.4 36 8.6 ENE 13 15 7 8 1017.0 1016.5 0.0
28/08:30pm 24.5 21.7 8.5 36 8.6 ENE 13 15 7 8 1017.0 1016.5 0.0
28/08:00pm 25.2 22.1 8.7 35 9.0 ENE 15 17 8 9 1017.0 1016.5 0.0
28/07:30pm 25.8 23.1 8.8 34 9.3 ENE 13 13 7 7 1017.0 1016.5 0.0
28/07:00pm 26.3 24.1 9.2 34 9.4 ENE 11 13 6 7 1016.8 1016.3 0.0
28/06:30pm 26.9 24.8 8.4 31 10.1 ENE 9 13 5 7 1016.8 1016.3 0.0
28/06:00pm 28.0 27.0 8.8 30 10.6 NNW 4 7 2 4 1016.5 1016.0 0.0
28/05:30pm 29.2 27.6 8.8 28 11.3 NNW 7 11 4 6 1016.0 1015.6 0.0
28/05:00pm 29.9 27.2 8.9 27 11.7 N 13 17 7 9 1016.2 1015.8 0.0
28/04:30pm 30.5 27.8 8.8 26 12.1 NNW 13 22 7 12 1016.0 1015.6 0.0
28/04:00pm 30.5 28.5 8.8 26 12.1 NW 9 15 5 8 1016.1 1015.7 0.0
28/03:30pm 30.1 26.7 9.1 27 11.8 NNE 17 26 9 14 1016.5 1016.0 0.0
28/03:00pm 30.0 26.6 9.0 27 11.7 N 17 24 9 13 1016.8 1016.3 0.0
28/02:30pm 30.0 26.2 9.0 27 11.8 N 19 26 10 14 1016.9 1016.4 0.0
28/02:00pm 29.3 25.4 9.4 29 11.2 N 20 28 11 15 1017.3 1016.8 0.0
28/01:30pm 29.7 26.8 9.8 29 11.3 NNW 15 20 8 11 1017.6 1017.1 0.0
28/01:00pm 29.5 26.5 10.6 31 10.8 N 17 24 9 13 1017.9 1017.4 0.0
28/12:30pm 28.9 25.3 10.6 32 10.5 NNW 20 28 11 15 1018.5 1018.0 0.0
28/12:00pm 28.2 24.2 10.4 33 10.1 N 22 30 12 16 1018.9 1018.4 0.0
28/11:30am 27.9 23.6 10.6 34 9.8 N 24 30 13 16 1019.4 1018.9 0.0
28/11:00am 26.7 22.3 10.4 36 9.2 N 24 32 13 17 1019.7 1019.2 0.0
28/10:30am 27.2 23.3 10.8 36 9.3 N 22 30 12 16 1019.9 1019.4 0.0
28/10:00am 25.1 21.0 10.2 39 8.3 N 22 28 12 15 1020.1 1019.6 0.0
28/09:30am 25.0 20.9 10.1 39 8.3 N 22 28 12 15 1020.2 1019.7 0.0
28/09:00am 24.6 20.5 10.1 40 8.0 N 22 28 12 15 1020.1 1019.6 0.0
28/08:30am 24.0 21.6 9.9 41 7.8 NNE 13 22 7 12 1019.9 1019.4 0.0
28/08:00am 21.2 20.3 9.1 46 6.5 NNE 4 7 2 4 1019.7 1019.2 0.0
28/07:30am 20.0 18.4 8.7 48 6.0 NNE 7 9 4 5 1019.5 1019.0 0.0
28/07:00am 19.8 18.3 8.5 48 5.9 N 6 7 3 4 1019.1 1018.6 0.0
28/06:30am 19.8 18.0 7.9 46 6.2 N 7 9 4 5 1018.8 1018.3 0.0
28/06:00am 20.3 18.7 8.6 47 6.2 N 7 9 4 5 1018.6 1018.1 0.0
28/05:30am 20.5 18.0 8.2 45 6.4 N 11 13 6 7 1018.5 1018.0 0.0
28/05:00am 20.9 17.6 8.2 44 6.7 NNE 15 19 8 10 1018.3 1017.8 0.0
28/04:30am 21.0 17.8 8.3 44 6.7 NNE 15 17 8 9 1018.1 1017.6 0.0
28/04:00am 20.7 17.8 8.0 44 6.6 NNE 13 15 7 8 1018.1 1017.6 0.0
28/03:30am 20.7 17.8 8.0 44 6.6 NNE 13 15 7 8 1018.2 1017.7 0.0
28/03:00am 20.9 17.9 7.9 43 6.8 NNE 13 15 7 8 1018.2 1017.7 0.0
28/02:30am 21.6 18.3 8.1 42 7.1 NNE 15 19 8 10 1018.3 1017.8 0.0
28/02:00am 22.0 18.4 8.2 41 7.3 NE 17 20 9 11 1018.3 1017.8 0.0
28/01:30am 22.3 18.3 8.1 40 7.5 NE 19 24 10 13 1018.4 1017.9 0.0
28/01:00am 22.9 18.8 7.8 38 8.0 NE 19 22 10 12 1018.3 1017.8 0.0
28/12:30am 23.6 19.6 8.1 37 8.3 NE 19 24 10 13 1018.4 1017.9 0.0
28/12:00am 23.9 20.6 7.9 36 8.5 NE 15 19 8 10 1018.5 1018.0 0.0
 
Date/Time
EST
Temp
°C
App
Temp
°C
Dew
Point
Rel
Hum
%
Delta-T
°C
Wind Press
QNH
hPa
Press
MSL
hPa
Rain
since 9 am
mm
Dir
 
Spd
km/h
Gust
km/h
Spd
kts
Gust
kts
27/11:30pm 23.8 20.9 8.2 37 8.3 NE 13 17 7 9 1018.5 1018.0 0.0
27/11:00pm 23.6 20.9 7.3 35 8.5 N 11 17 6 9 1018.8 1018.3 0.0
27/10:30pm 23.6 20.2 7.7 36 8.4 N 15 15 8 8 1018.8 1018.3 0.0
27/10:00pm 23.3 20.5 7.0 35 8.5 NNE 11 15 6 8 1018.8 1018.3 0.0
27/09:30pm 24.2 22.3 7.4 34 8.9 NE 7 9 4 5 1018.9 1018.4 0.0
27/09:00pm 24.1 22.2 6.8 33 9.0 ENE 6 7 3 4 1018.8 1018.3 0.0
27/08:30pm 24.3 21.8 6.6 32 9.2 E 9 11 5 6 1018.6 1018.1 0.0
27/08:00pm 24.4 21.5 6.6 32 9.3 E 11 13 6 7 1018.7 1018.2 0.0
27/07:30pm 24.9 22.7 6.1 30 9.7 NNW 7 9 4 5 1018.7 1018.2 0.0
27/07:00pm 25.8 23.3 6.4 29 10.1 NW 9 11 5 6 1018.4 1017.9 0.0
27/06:30pm 26.6 23.7 6.6 28 10.6 N 11 13 6 7 1018.0 1017.5 0.0
27/06:00pm 27.4 24.6 6.8 27 10.9 N 11 15 6 8 1017.9 1017.4 0.0
27/05:30pm 27.7 24.9 7.0 27 11.1 N 11 15 6 8 1017.7 1017.2 0.0
27/05:00pm 28.1 24.5 6.8 26 11.4 N 15 20 8 11 1017.7 1017.2 0.0
27/04:30pm 28.6 24.2 7.2 26 11.5 N 20 26 11 14 1017.7 1017.2 0.0
27/04:00pm 28.8 25.1 6.2 24 12.0 N 15 20 8 11 1017.6 1017.1 0.0
27/03:30pm 28.9 24.3 6.3 24 12.0 N 20 32 11 17 1017.7 1017.2 0.0
27/03:00pm 28.9 25.0 6.9 25 11.8 NNE 17 26 9 14 1017.8 1017.3 0.0
27/02:30pm 28.7 24.7 6.7 25 11.8 NNE 17 24 9 13 1017.9 1017.4 0.0
27/02:00pm 28.7 24.6 6.1 24 12.0 N 17 30 9 16 1018.1 1017.6 0.0
27/01:30pm 28.7 24.7 6.7 25 11.8 N 17 28 9 15 1018.4 1017.9 0.0
27/01:00pm 29.0 24.9 6.4 24 12.0 N 17 26 9 14 1019.0 1018.5 0.0
27/12:30pm 28.0 23.3 6.2 25 11.5 N 20 33 11 18 1019.7 1019.2 0.0
27/12:00pm 27.6 23.2 7.5 28 10.8 N 20 32 11 17 1020.0 1019.5 0.0
27/11:30am 27.6 23.5 8.0 29 10.7 N 19 28 10 15 1020.5 1020.1 0.0
27/11:00am 26.7 22.5 8.2 31 10.0 N 20 28 11 15 1020.9 1020.5 0.0
27/10:30am 26.3 22.1 8.3 32 9.8 NNE 20 26 11 14 1021.2 1020.8 0.0
27/10:00am 25.3 20.4 8.3 34 9.1 NNE 24 32 13 17 1021.4 1021.0 0.0

Other Formats:

Comma delimited format used in spreadsheet applications
http://www.bom.gov.au/fwo/IDN60801/IDN60801.95699.axf

JavaScript Object Notation format (JSON) in row-major order
http://www.bom.gov.au/fwo/IDN60801/IDN60801.95699.json